createdAt,value
2018-07-25T00:00:11.633Z,82.62
2018-07-25T00:01:26.545Z,82.43
2018-07-25T00:02:41.007Z,82.43
2018-07-25T00:03:55.710Z,82.91
2018-07-25T00:05:10.415Z,82.72
2018-07-25T00:06:25.348Z,82.43
2018-07-25T00:07:39.797Z,82.43
2018-07-25T00:08:53.982Z,82.47
2018-07-25T00:10:08.727Z,83.3
2018-07-25T00:11:23.169Z,83.11
2018-07-25T00:12:37.607Z,83.11
2018-07-25T00:13:52.270Z,83.01
2018-07-25T00:15:05.960Z,83.01
2018-07-25T00:16:20.907Z,83.11
2018-07-25T00:17:35.339Z,82.81
2018-07-25T00:18:49.543Z,83.11
2018-07-25T00:20:04.227Z,83.2
2018-07-25T00:21:18.595Z,83.2
2018-07-25T00:22:33.229Z,83.11
2018-07-25T00:23:47.715Z,83.01
2018-07-25T00:25:02.434Z,83.69
2018-07-25T00:26:17.148Z,83.59
2018-07-25T00:27:31.958Z,83.49
2018-07-25T00:28:45.653Z,83.59
2018-07-25T00:30:00.120Z,84.08
2018-07-25T00:31:14.282Z,84.08
2018-07-25T00:32:29.050Z,84.46
2018-07-25T00:33:43.735Z,84.66
2018-07-25T00:34:58.426Z,84.75
2018-07-25T00:36:13.143Z,84.94
2018-07-25T00:37:28.995Z,85.14
2018-07-25T00:38:43.682Z,85.52
2018-07-25T00:39:58.106Z,85.52
2018-07-25T00:41:12.532Z,85.77
2018-07-25T00:42:27.135Z,85.58
2018-07-25T00:43:42.057Z,85.48
2018-07-25T00:44:56.973Z,85.68
2018-07-25T00:46:11.836Z,85.77
2018-07-25T00:47:26.320Z,85.97
2018-07-25T00:48:40.734Z,85.87
2018-07-25T00:49:54.644Z,86.25
2018-07-25T00:51:09.570Z,86.16
2018-07-25T00:52:24.622Z,86.35
2018-07-25T00:53:39.581Z,85.77
2018-07-25T00:54:53.759Z,85.68
2018-07-25T00:56:08.216Z,86.25
2018-07-25T00:57:22.662Z,85.77
2018-07-25T00:58:36.800Z,85.87
2018-07-25T00:59:51.267Z,85.68
2018-07-25T01:01:05.706Z,85.97
2018-07-25T01:02:20.110Z,85.68
2018-07-25T01:03:34.259Z,85.97
2018-07-25T01:04:48.986Z,85.87
2018-07-25T01:06:03.899Z,86.06
2018-07-25T01:07:18.077Z,85.77
2018-07-25T01:08:32.516Z,85.77
2018-07-25T01:09:47.218Z,86.35
2018-07-25T01:11:01.899Z,86.35
2018-07-25T01:12:15.842Z,86.25
2018-07-25T01:13:30.276Z,86.16
2018-07-25T01:14:45.220Z,86.55
2018-07-25T01:15:59.429Z,86.06
2018-07-25T01:17:13.870Z,86.93
2018-07-25T01:18:28.442Z,86.25
2018-07-25T01:19:43.171Z,86.16
2018-07-25T01:20:57.594Z,85.97
2018-07-25T01:22:11.768Z,85.83
2018-07-25T01:23:26.191Z,85.73
2018-07-25T01:24:40.598Z,85.83
2018-07-25T01:25:55.028Z,85.93
2018-07-25T01:27:09.950Z,85.93
2018-07-25T01:28:24.614Z,85.73
2018-07-25T01:29:39.364Z,85.35
2018-07-25T01:30:54.335Z,85.44
2018-07-25T01:32:08.287Z,85.15
2018-07-25T01:33:23.226Z,85.15
2018-07-25T01:34:38.156Z,84.86
2018-07-25T01:35:52.352Z,85.05
2018-07-25T01:37:07.023Z,85.35
2018-07-25T01:38:21.694Z,85.15
2018-07-25T01:39:36.321Z,84.77
2018-07-25T01:40:50.489Z,84.67
2018-07-25T01:42:04.673Z,84.67
2018-07-25T01:43:19.290Z,84.67
2018-07-25T01:44:33.796Z,84.57
2018-07-25T01:45:48.505Z,84.38
2018-07-25T01:47:02.673Z,84.19
2018-07-25T01:48:16.592Z,84.38
2018-07-25T01:49:30.841Z,83.99
2018-07-25T01:50:45.093Z,84.67
2018-07-25T01:51:59.302Z,84.47
2018-07-25T01:53:13.982Z,83.7
2018-07-25T01:54:28.433Z,83.89
2018-07-25T01:55:42.540Z,83.99
2018-07-25T01:56:57.234Z,83.89
2018-07-25T01:58:11.901Z,83.51
2018-07-25T01:59:26.341Z,83.41
2018-07-25T02:00:40.789Z,83.51
2018-07-25T02:01:55.445Z,83.51
2018-07-25T02:03:09.883Z,83.7
2018-07-25T02:04:24.545Z,84.28
2018-07-25T02:05:38.893Z,83.26
2018-07-25T02:06:53.327Z,83.89
2018-07-25T02:08:08.329Z,83.7
2018-07-25T02:09:23.745Z,83.64
2018-07-25T02:10:38.677Z,84.95
2018-07-25T02:11:53.367Z,85.05
2018-07-25T02:13:07.804Z,85.15
2018-07-25T02:14:22.294Z,83.99
2018-07-25T02:15:36.605Z,83.99
2018-07-25T02:16:51.303Z,84.38
2018-07-25T02:18:05.730Z,84.67
2018-07-25T02:19:20.701Z,84.57
2018-07-25T02:20:35.676Z,84.28
2018-07-25T02:21:49.313Z,84.57
2018-07-25T02:23:03.732Z,85.05
2018-07-25T02:24:17.941Z,85.63
2018-07-25T02:25:32.426Z,85.93
2018-07-25T02:26:47.376Z,86.02
2018-07-25T02:28:02.090Z,86.41
2018-07-25T02:29:16.982Z,86.79
2018-07-25T02:30:30.890Z,86.99
2018-07-25T02:31:45.094Z,86.89
2018-07-25T02:32:59.060Z,87.33
2018-07-25T02:34:13.265Z,87.62
2018-07-25T02:35:28.241Z,88.39
2018-07-25T02:36:42.805Z,88.68
2018-07-25T02:37:56.748Z,88.78
2018-07-25T02:39:11.444Z,88.59
2018-07-25T02:40:25.366Z,88.87
2018-07-25T02:41:39.777Z,88.97
2018-07-25T02:42:53.986Z,89.26
2018-07-25T02:44:08.446Z,89.75
2018-07-25T02:45:23.168Z,89.45
2018-07-25T02:46:37.793Z,89.75
2018-07-25T02:47:52.479Z,89.65
2018-07-25T02:49:07.171Z,89.84
2018-07-25T02:50:22.122Z,89.65
2018-07-25T02:51:36.856Z,90.52
2018-07-25T02:52:51.088Z,90.03
2018-07-25T02:54:05.551Z,90.13
2018-07-25T02:55:20.231Z,90.33
2018-07-25T02:56:34.920Z,90.33
2018-07-25T02:57:49.727Z,89.84
2018-07-25T02:59:04.421Z,89.84
2018-07-25T03:00:19.113Z,90.13
2018-07-25T03:01:33.278Z,90.42
2018-07-25T03:02:47.951Z,90.23
2018-07-25T03:04:02.397Z,90.33
2018-07-25T03:05:16.825Z,90.67
2018-07-25T03:06:30.737Z,90.52
2018-07-25T03:07:45.385Z,90.57
2018-07-25T03:09:00.321Z,90.71
2018-07-25T03:10:15.500Z,90.47
2018-07-25T03:11:30.198Z,91.15
2018-07-25T03:12:44.682Z,90.67
2018-07-25T03:13:59.355Z,90.95
2018-07-25T03:15:14.333Z,91.25
2018-07-25T03:16:28.533Z,91.15
2018-07-25T03:17:44.040Z,91.15
2018-07-25T03:18:58.994Z,91.15
2018-07-25T03:20:13.686Z,91.58
2018-07-25T03:21:28.373Z,91.05
2018-07-25T03:22:42.356Z,90.81
2018-07-25T03:23:56.678Z,91.63
2018-07-25T03:25:10.941Z,91.92
2018-07-25T03:26:24.880Z,91.35
2018-07-25T03:27:39.697Z,91.35
2018-07-25T03:28:53.850Z,91.35
2018-07-25T03:30:07.805Z,91.73
2018-07-25T03:31:22.905Z,91.83
2018-07-25T03:32:37.983Z,91.63
2018-07-25T03:33:52.912Z,92.11
2018-07-25T03:35:07.093Z,91.53
2018-07-25T03:36:21.524Z,91.44
2018-07-25T03:37:35.896Z,91.35
2018-07-25T03:38:50.574Z,91.53
2018-07-25T03:40:05.256Z,90.95
2018-07-25T03:41:19.955Z,91.15
2018-07-25T03:42:34.077Z,91.44
2018-07-25T03:43:49.009Z,91.15
2018-07-25T03:45:03.714Z,91.63
2018-07-25T03:46:17.620Z,91.73
2018-07-25T03:47:32.262Z,91.53
2018-07-25T03:48:46.703Z,91.05
2018-07-25T03:50:01.633Z,91.53
2018-07-25T03:51:16.289Z,90.86
2018-07-25T03:52:29.980Z,90.95
2018-07-25T03:53:44.470Z,90.95
2018-07-25T03:54:59.162Z,91.53
2018-07-25T03:56:13.613Z,92.98
2018-07-25T03:57:27.815Z,93.71
2018-07-25T03:58:42.823Z,94.77
2018-07-25T03:59:57.249Z,95.54
2018-07-25T04:01:11.416Z,94.96
2018-07-25T04:02:25.458Z,95.35
2018-07-25T04:03:40.504Z,95.64
2018-07-25T04:04:55.059Z,95.45
2018-07-25T04:06:09.812Z,94.38
2018-07-25T04:07:24.010Z,92.94
2018-07-25T04:08:38.954Z,91.05
2018-07-25T04:09:53.182Z,90.19
2018-07-25T04:11:08.042Z,87.85
2018-07-25T04:12:22.194Z,87.08
2018-07-25T04:13:36.905Z,86.65
2018-07-25T04:14:51.604Z,85.87
2018-07-25T04:16:06.018Z,85.48
2018-07-25T04:17:20.704Z,85.87
2018-07-25T04:18:35.639Z,86.83
2018-07-25T04:19:50.590Z,87.27
2018-07-25T04:21:04.789Z,87.27
2018-07-25T04:22:18.948Z,86.21
2018-07-25T04:23:33.396Z,85.93
2018-07-25T04:24:48.509Z,85.1
2018-07-25T04:26:03.026Z,84.32
2018-07-25T04:27:17.744Z,82.47
2018-07-25T04:28:31.684Z,82.28
2018-07-25T04:29:46.822Z,82.22
2018-07-25T04:31:01.251Z,81.64
2018-07-25T04:32:15.785Z,81.1
2018-07-25T04:33:30.501Z,80.75
2018-07-25T04:34:45.145Z,82.07
2018-07-25T04:35:59.661Z,83.28
2018-07-25T04:37:13.626Z,84.11
2018-07-25T04:38:27.786Z,85.47
2018-07-25T04:39:42.078Z,85.42
2018-07-25T04:40:56.757Z,85.72
2018-07-25T04:42:11.236Z,84.94
2018-07-25T04:43:25.917Z,84.41
2018-07-25T04:44:40.329Z,83.44
2018-07-25T04:45:55.087Z,83.38
2018-07-25T04:47:09.352Z,83.58
2018-07-25T04:48:24.027Z,83.83
2018-07-25T04:49:38.451Z,83.53
2018-07-25T04:50:52.879Z,83.73
2018-07-25T04:52:07.566Z,83.63
2018-07-25T04:53:22.289Z,83.83
2018-07-25T04:54:37.256Z,84.56
2018-07-25T04:55:51.668Z,84.46
2018-07-25T04:57:05.881Z,84.56
2018-07-25T04:58:20.330Z,84.56
2018-07-25T04:59:34.764Z,84.75
2018-07-25T05:00:49.549Z,85.33
2018-07-25T05:02:04.180Z,85.04
2018-07-25T05:03:18.372Z,83.98
2018-07-25T05:04:32.359Z,82.08
2018-07-25T05:05:47.344Z,79.93
2018-07-25T05:07:02.073Z,77.84
2018-07-25T05:08:16.175Z,76.95
2018-07-25T05:09:30.364Z,76.46
2018-07-25T05:10:44.776Z,73.78
2018-07-25T05:11:59.467Z,71.03
2018-07-25T05:13:13.906Z,69.65
2018-07-25T05:14:28.589Z,68.22
2018-07-25T05:15:43.338Z,67.02
2018-07-25T05:16:57.511Z,65.59
2018-07-25T05:18:11.736Z,65.98
2018-07-25T05:19:26.487Z,66.76
2018-07-25T05:20:40.449Z,68.38
2018-07-25T05:21:54.943Z,68.35
2018-07-25T05:23:09.145Z,67.28
2018-07-25T05:24:24.360Z,66.79
2018-07-25T05:25:38.547Z,65.75
2018-07-25T05:26:52.979Z,65.78
2018-07-25T05:28:07.181Z,67.05
2018-07-25T05:29:21.693Z,68.64
2018-07-25T05:30:36.151Z,71.11
2018-07-25T05:31:50.701Z,71.42
2018-07-25T05:33:05.154Z,72.45
2018-07-25T05:34:20.111Z,74.07
2018-07-25T05:35:34.043Z,74.27
2018-07-25T05:36:48.500Z,75.3
2018-07-25T05:38:02.222Z,75.65
2018-07-25T05:39:17.140Z,75.94
2018-07-25T05:40:31.827Z,76.48
2018-07-25T05:41:46.660Z,77.26
2018-07-25T05:43:01.128Z,77.16
2018-07-25T05:44:15.808Z,77.36
2018-07-25T05:45:30.512Z,77.16
2018-07-25T05:46:44.724Z,77.06
2018-07-25T05:47:58.904Z,77.84
2018-07-25T05:49:13.869Z,77.65
2018-07-25T05:50:28.199Z,78.03
2018-07-25T05:51:42.885Z,78.19
2018-07-25T05:52:57.655Z,78.58
2018-07-25T05:54:12.528Z,78.09
2018-07-25T05:55:26.965Z,78.58
2018-07-25T05:56:41.960Z,78.67
2018-07-25T05:57:57.266Z,78.19
2018-07-25T05:59:11.716Z,78.09
2018-07-25T06:00:25.661Z,78
2018-07-25T06:01:40.131Z,78.38
2018-07-25T06:12:26.996Z,78.97
2018-07-25T06:13:41.721Z,78.58
2018-07-25T06:14:55.954Z,78.77
2018-07-25T06:16:09.896Z,78.87
2018-07-25T06:17:24.198Z,78.77
2018-07-25T06:18:39.223Z,78.97
2018-07-25T06:19:53.428Z,78.97
2018-07-25T06:21:07.902Z,79.2
2018-07-25T06:22:22.774Z,79
2018-07-25T06:23:36.960Z,78.48
2018-07-25T06:24:51.578Z,78.61
2018-07-25T06:26:05.875Z,78.33
2018-07-25T06:27:20.649Z,78.23
2018-07-25T06:28:34.794Z,78.13
2018-07-25T06:29:49.274Z,77.65
2018-07-25T06:31:03.467Z,77.55
2018-07-25T06:32:18.018Z,77.26
2018-07-25T06:33:33.029Z,77.39
2018-07-25T06:34:47.726Z,77.01
2018-07-25T06:36:02.136Z,77.2
2018-07-25T06:37:16.610Z,77.2
2018-07-25T06:38:31.234Z,77.01
2018-07-25T06:39:45.685Z,76.91
2018-07-25T06:40:59.941Z,77.11
2018-07-25T06:42:14.607Z,77.2
2018-07-25T06:43:29.865Z,77.39
2018-07-25T06:44:43.835Z,77.98
2018-07-25T06:45:57.760Z,78.17
2018-07-25T06:47:12.426Z,77.49
2018-07-25T06:48:26.986Z,78.17
2018-07-25T06:49:41.681Z,77.43
2018-07-25T06:50:56.527Z,76.75
2018-07-25T06:52:10.472Z,75.98
2018-07-25T06:53:24.725Z,76.11
2018-07-25T06:54:39.173Z,76.6
2018-07-25T06:55:53.636Z,77.47
2018-07-25T06:57:07.829Z,77.86
2018-07-25T06:58:22.488Z,78.05
2018-07-25T06:59:36.979Z,77.57
2018-07-25T07:00:51.184Z,78.83
2018-07-25T07:02:05.922Z,79.41
2018-07-25T07:03:20.615Z,79.9
2018-07-25T07:04:35.084Z,81.35
2018-07-25T07:05:49.820Z,82.23
2018-07-25T07:07:17.006Z,82.38
2018-07-25T07:08:31.723Z,83.2
2018-07-25T07:09:46.446Z,80.87
2018-07-25T07:11:00.902Z,81.06
2018-07-25T07:12:15.383Z,80.87
2018-07-25T07:13:29.594Z,80.52
2018-07-25T07:14:43.845Z,79.55
2018-07-25T07:15:59.000Z,77.9
2018-07-25T07:17:13.706Z,77.94
2018-07-25T07:18:27.966Z,78.94
2018-07-25T07:19:42.960Z,77.58
2018-07-25T07:20:57.147Z,76.17
2018-07-25T07:22:11.853Z,74.8
2018-07-25T07:23:26.289Z,73.57
2018-07-25T07:24:41.310Z,71.62
2018-07-25T07:25:55.904Z,70.95
2018-07-25T07:27:10.633Z,70.56
2018-07-25T07:28:25.613Z,70.46
2018-07-25T07:29:39.979Z,70.46
2018-07-25T07:30:54.673Z,71.17
2018-07-25T07:32:09.116Z,71.08
2018-07-25T07:33:23.629Z,71.04
2018-07-25T07:34:38.151Z,71.23
2018-07-25T07:35:52.361Z,71.33
2018-07-25T07:37:07.089Z,71.43
2018-07-25T07:38:21.993Z,71.72
2018-07-25T07:39:37.091Z,71.23
2018-07-25T07:40:51.313Z,71.23
2018-07-25T07:42:05.798Z,70.95
2018-07-25T07:43:20.039Z,71.04
2018-07-25T07:44:34.244Z,70.95
2018-07-25T07:45:48.749Z,71.62
2018-07-25T07:47:03.240Z,72.41
2018-07-25T07:48:17.914Z,72.99
2018-07-25T07:49:32.318Z,72.37
2018-07-25T07:50:46.795Z,72.37
2018-07-25T07:52:01.529Z,71.88
2018-07-25T07:53:16.021Z,71.43
2018-07-25T07:54:30.532Z,70.68
2018-07-25T07:55:45.040Z,70.01
2018-07-25T07:56:59.728Z,70.68
2018-07-25T07:58:13.974Z,70.4
2018-07-25T07:59:28.084Z,69.71
2018-07-25T08:00:42.187Z,68.8
2018-07-25T08:01:56.931Z,69
2018-07-25T08:03:11.998Z,69
2018-07-25T08:04:26.782Z,68.06
2018-07-25T08:05:41.605Z,65.92
2018-07-25T08:06:55.550Z,64.87
2018-07-25T08:08:09.970Z,64.49
2018-07-25T08:09:24.165Z,64.42
2018-07-25T08:10:38.853Z,64.32
2018-07-25T08:11:54.102Z,64.32
2018-07-25T08:13:08.294Z,63.84
2018-07-25T08:14:22.797Z,63.74
2018-07-25T08:15:37.322Z,63.54
2018-07-25T08:16:52.026Z,63.35
2018-07-25T08:18:06.594Z,63.54
2018-07-25T08:19:21.068Z,63.64
2018-07-25T08:20:35.058Z,63.45
2018-07-25T08:21:49.806Z,62.96
2018-07-25T08:23:04.262Z,62.76
2018-07-25T08:24:19.004Z,62.76
2018-07-25T08:25:33.806Z,62.96
2018-07-25T08:26:48.782Z,62.86
2018-07-25T08:28:03.261Z,62.7
2018-07-25T08:29:17.999Z,62.7
2018-07-25T08:30:32.958Z,63.18
2018-07-25T08:31:47.812Z,62.76
2018-07-25T08:33:01.782Z,63.15
2018-07-25T08:34:16.723Z,63.18
2018-07-25T08:35:31.324Z,61.92
2018-07-25T08:36:45.651Z,61.36
2018-07-25T08:38:00.429Z,61.27
2018-07-25T08:39:15.115Z,60.68
2018-07-25T08:40:29.594Z,60.52
2018-07-25T08:41:44.677Z,60.91
2018-07-25T08:42:58.855Z,60.22
2018-07-25T08:44:13.070Z,59.93
2018-07-25T08:45:27.478Z,59.74
2018-07-25T08:46:42.153Z,59.44
2018-07-25T08:47:57.136Z,59.15
2018-07-25T08:49:11.611Z,59.15
2018-07-25T08:50:26.581Z,58.47
2018-07-25T08:51:41.387Z,57.91
2018-07-25T08:52:55.924Z,57.62
2018-07-25T08:54:10.524Z,57.52
2018-07-25T08:55:25.006Z,57.42
2018-07-25T08:56:39.290Z,57.62
2018-07-25T08:57:54.161Z,57.81
2018-07-25T08:59:08.585Z,58.01
2018-07-25T09:00:22.593Z,57.71
2018-07-25T09:01:37.085Z,57.32
2018-07-25T09:02:52.259Z,57.42
2018-07-25T09:04:06.981Z,57.03
2018-07-25T09:05:21.721Z,56.15
2018-07-25T09:06:36.526Z,56.35
2018-07-25T09:07:51.796Z,55.96
2018-07-25T09:09:06.546Z,56.05
2018-07-25T09:10:21.295Z,55.86
2018-07-25T09:11:35.761Z,55.98
2018-07-25T09:12:50.517Z,56.37
2018-07-25T09:14:05.813Z,55.79
2018-07-25T09:15:20.819Z,55.91
2018-07-25T09:16:35.533Z,55.71
2018-07-25T09:17:49.877Z,55.32
2018-07-25T09:19:04.636Z,55.32
2018-07-25T09:20:19.046Z,55.62
2018-07-25T09:21:33.843Z,54.54
2018-07-25T09:22:48.825Z,54.64
2018-07-25T09:24:03.302Z,54.71
2018-07-25T09:25:17.728Z,54.91
2018-07-25T09:26:32.907Z,54.81
2018-07-25T09:27:47.465Z,54.81
2018-07-25T09:29:02.250Z,54.32
2018-07-25T09:30:17.063Z,54.93
2018-07-25T09:31:31.348Z,54.83
2018-07-25T09:32:46.743Z,55.13
2018-07-25T09:34:03.741Z,54.74
2018-07-25T09:35:18.063Z,54.93
2018-07-25T09:36:32.882Z,54.93
2018-07-25T09:37:46.957Z,54.57
2018-07-25T09:39:01.447Z,54.67
2018-07-25T09:40:15.856Z,54.67
2018-07-25T09:41:30.373Z,54.17
2018-07-25T09:42:45.575Z,53.91
2018-07-25T09:44:00.480Z,54.01
2018-07-25T09:45:14.511Z,53.42
2018-07-25T09:46:29.416Z,52.96
2018-07-25T09:47:44.487Z,52.76
2018-07-25T09:48:59.697Z,51.98
2018-07-25T09:50:17.127Z,52.27
2018-07-25T09:51:33.178Z,51.88
2018-07-25T09:52:47.961Z,52.05
2018-07-25T09:54:02.752Z,52.05
2018-07-25T09:55:17.485Z,52.05
2018-07-25T09:56:31.737Z,52.27
2018-07-25T09:57:46.556Z,52.37
2018-07-25T09:59:01.720Z,51.86
2018-07-25T10:00:15.103Z,52.15
2018-07-25T10:01:29.864Z,52.25
2018-07-25T10:02:44.693Z,52.05
2018-07-25T10:04:00.019Z,51.95
2018-07-25T10:05:15.329Z,50.98
2018-07-25T10:06:30.984Z,51.46
2018-07-25T10:07:45.469Z,51.17
2018-07-25T10:09:00.184Z,50.68
2018-07-25T10:10:15.413Z,51.07
2018-07-25T10:11:29.945Z,50.88
2018-07-25T10:12:45.012Z,49.82
2018-07-25T10:14:00.244Z,50.2
2018-07-25T10:15:14.735Z,50.78
2018-07-25T10:16:29.177Z,50.78
2018-07-25T10:17:43.490Z,50.51
2018-07-25T10:18:58.283Z,50.42
2018-07-25T10:20:15.644Z,49.53
2018-07-25T10:21:32.013Z,49.92
2018-07-25T10:22:46.986Z,47.87
2018-07-25T10:24:01.621Z,47.89
2018-07-25T10:25:15.933Z,48.09
2018-07-25T10:26:29.934Z,47.6
2018-07-25T10:27:44.551Z,47.5
2018-07-25T10:28:59.470Z,47.4
2018-07-25T10:30:14.143Z,47.11
2018-07-25T10:31:28.697Z,47.2
2018-07-25T10:32:42.546Z,47.69
2018-07-25T10:34:12.983Z,47.89
2018-07-25T10:35:27.617Z,47.81
2018-07-25T10:36:42.822Z,47.72
2018-07-25T10:37:57.441Z,47.81
2018-07-25T10:39:13.004Z,48.01
